createdAt,value
2023-02-03T00:01:00.080Z,0
2023-02-03T00:06:22.667Z,0
2023-02-03T00:11:54.618Z,0
2023-02-03T00:17:33.047Z,0
2023-02-03T00:23:29.413Z,0
2023-02-03T00:28:44.514Z,0
2023-02-03T00:34:06.241Z,0
2023-02-03T00:39:58.281Z,0
2023-02-03T00:45:30.377Z,0
2023-02-03T00:50:56.598Z,0
2023-02-03T00:56:33.465Z,0
2023-02-03T01:02:21.242Z,0
2023-02-03T01:07:52.084Z,0
2023-02-03T01:13:24.873Z,0
2023-02-03T01:18:42.815Z,3.6
2023-02-03T01:24:27.259Z,0
2023-02-03T01:29:49.822Z,0
2023-02-03T01:35:28.121Z,0
2023-02-03T01:41:13.291Z,0
2023-02-03T01:46:38.159Z,0
2023-02-03T01:51:51.107Z,0
2023-02-03T01:57:34.482Z,0
2023-02-03T02:02:59.514Z,0
2023-02-03T02:08:34.821Z,0
2023-02-03T02:14:03.774Z,0
2023-02-03T02:19:38.725Z,0
2023-02-03T02:25:25.126Z,7.2
2023-02-03T02:30:58.016Z,4.8
2023-02-03T02:36:42.189Z,0
2023-02-03T02:41:57.628Z,0
2023-02-03T02:47:49.242Z,0
2023-02-03T02:53:15.860Z,0
2023-02-03T02:58:55.117Z,0
2023-02-03T03:04:01.234Z,0
2023-02-03T03:09:35.485Z,0
2023-02-03T03:15:32.866Z,0
2023-02-03T03:21:09.087Z,0
2023-02-03T03:26:39.267Z,0
2023-02-03T03:31:50.718Z,0
2023-02-03T03:37:34.871Z,0
2023-02-03T03:43:02.326Z,0
2023-02-03T03:48:51.971Z,0
2023-02-03T03:54:01.107Z,0
2023-02-03T03:59:56.918Z,0
2023-02-03T04:05:27.338Z,0
2023-02-03T04:10:41.935Z,0
2023-02-03T04:16:24.101Z,0
2023-02-03T04:21:53.531Z,0
2023-02-03T04:27:16.015Z,0
2023-02-03T04:32:51.326Z,0
2023-02-03T04:38:31.449Z,0
2023-02-03T04:44:21.792Z,0
2023-02-03T04:49:45.252Z,0
2023-02-03T04:55:11.407Z,0
2023-02-03T05:01:00.822Z,0
2023-02-03T05:06:19.782Z,0
2023-02-03T05:11:59.370Z,0
2023-02-03T05:17:35.139Z,0
2023-02-03T05:22:52.069Z,0
2023-02-03T05:33:53.782Z,0
2023-02-03T05:39:28.077Z,0
2023-02-03T05:44:56.974Z,0
2023-02-03T05:50:29.681Z,0
2023-02-03T05:56:14.970Z,0
2023-02-03T06:01:44.399Z,0
2023-02-03T06:07:29.077Z,0
2023-02-03T06:12:53.336Z,0
2023-02-03T06:18:32.762Z,0
2023-02-03T06:24:08.580Z,0
2023-02-03T06:29:35.572Z,0
2023-02-03T06:35:18.794Z,0
2023-02-03T06:40:52.140Z,0
2023-02-03T06:46:16.340Z,0
2023-02-03T06:51:37.297Z,0
2023-02-03T06:57:24.383Z,0
2023-02-03T07:02:39.314Z,0
2023-02-03T07:08:37.023Z,0
2023-02-03T07:13:55.932Z,0
2023-02-03T07:19:20.477Z,0
2023-02-03T07:25:16.186Z,0
2023-02-03T07:30:41.242Z,0
2023-02-03T07:36:03.272Z,0
2023-02-03T07:41:37.028Z,0
2023-02-03T07:46:58.978Z,0
2023-02-03T07:52:39.351Z,0
2023-02-03T07:58:24.703Z,0
2023-02-03T08:03:43.360Z,0
2023-02-03T08:09:35.591Z,0
2023-02-03T08:14:51.337Z,0
2023-02-03T08:20:32.195Z,0
2023-02-03T08:26:18.222Z,0
2023-02-03T08:31:43.272Z,0
2023-02-03T08:37:15.561Z,0
2023-02-03T08:42:50.099Z,0
2023-02-03T08:48:35.816Z,2.4
2023-02-03T08:53:50.802Z,0
2023-02-03T08:59:42.266Z,2.4
2023-02-03T09:05:16.497Z,2.4
2023-02-03T09:10:47.339Z,0
2023-02-03T09:16:19.663Z,2.4
2023-02-03T09:21:39.789Z,3.6
2023-02-03T09:27:14.533Z,0
2023-02-03T09:32:44.462Z,0
2023-02-03T09:38:15.531Z,4.8
2023-02-03T09:44:06.780Z,8.4
2023-02-03T09:49:43.150Z,4.8
2023-02-03T09:55:03.363Z,7.2
2023-02-03T10:00:47.101Z,5.9
2023-02-03T10:06:32.584Z,8.4
2023-02-03T10:11:55.298Z,7.2
2023-02-03T10:17:28.233Z,9.6
2023-02-03T10:23:13.335Z,8.4
2023-02-03T10:28:33.838Z,7.2
2023-02-03T10:34:15.880Z,7.2
2023-02-03T10:39:59.518Z,11.9
2023-02-03T10:45:16.874Z,13.2
2023-02-03T10:50:40.208Z,10.7
2023-02-03T10:56:25.915Z,8.4
2023-02-03T11:02:02.424Z,3.6
2023-02-03T11:07:36.434Z,8.4
2023-02-03T11:12:59.183Z,5.9
2023-02-03T11:18:55.943Z,7.2
2023-02-03T11:24:18.745Z,7.2
2023-02-03T11:29:54.763Z,5.9
2023-02-03T11:35:40.827Z,8.4
2023-02-03T11:41:11.427Z,4.8
2023-02-03T11:46:48.373Z,5.9
2023-02-03T11:52:00.993Z,5.9
2023-02-03T11:57:36.970Z,5.9
2023-02-03T12:03:09.414Z,8.4
2023-02-03T12:08:59.833Z,5.9
2023-02-03T12:14:17.482Z,5.9
2023-02-03T12:20:04.640Z,5.9
2023-02-03T12:25:29.382Z,4.8
2023-02-03T12:31:24.350Z,8.4
2023-02-03T12:36:31.276Z,4.8
2023-02-03T12:42:11.677Z,5.9
2023-02-03T12:47:58.372Z,4.8
2023-02-03T12:53:20.983Z,5.9
2023-02-03T12:59:04.870Z,7.2
2023-02-03T13:04:43.615Z,4.8
2023-02-03T13:10:12.900Z,7.2
2023-02-03T13:15:53.374Z,11.9
2023-02-03T13:21:21.202Z,8.4
2023-02-03T13:26:53.516Z,10.7
2023-02-03T13:32:28.958Z,7.2
2023-02-03T13:38:12.617Z,7.2
2023-02-03T13:43:48.833Z,5.9
2023-02-03T13:49:27.995Z,7.2
2023-02-03T13:54:47.872Z,8.4
2023-02-03T14:00:34.317Z,7.2
2023-02-03T14:05:59.066Z,7.2
2023-02-03T14:11:19.330Z,4.8
2023-02-03T14:16:59.242Z,7.2
2023-02-03T14:22:40.047Z,0
2023-02-03T14:28:19.024Z,2.4
2023-02-03T14:33:46.022Z,4.8
2023-02-03T14:39:16.051Z,3.6
2023-02-03T14:45:06.717Z,5.9
2023-02-03T14:50:38.311Z,11.9
2023-02-03T14:56:04.985Z,10.7
2023-02-03T15:01:52.031Z,11.9
2023-02-03T15:07:32.764Z,8.4
2023-02-03T15:13:01.108Z,7.2
2023-02-03T15:18:31.931Z,7.2
2023-02-03T15:24:10.131Z,8.4
2023-02-03T15:29:31.416Z,9.6
2023-02-03T15:35:01.174Z,13.2
2023-02-03T15:40:42.612Z,19.2
2023-02-03T15:46:17.528Z,16.8
2023-02-03T15:52:06.900Z,22.8
2023-02-03T16:02:50.573Z,21.5
2023-02-03T16:08:29.226Z,20.4
2023-02-03T16:14:29.375Z,18
2023-02-03T16:19:40.019Z,15.6
2023-02-03T16:25:33.477Z,23.9
2023-02-03T16:30:48.505Z,15.6
2023-02-03T16:36:26.159Z,15.6
2023-02-03T16:42:02.329Z,15.6
2023-02-03T16:47:50.046Z,14.4
2023-02-03T16:53:03.894Z,19.2
2023-02-03T16:58:57.897Z,21.5
2023-02-03T17:04:28.028Z,22.8
2023-02-03T17:10:02.723Z,21.5
2023-02-03T17:15:21.498Z,20.4
2023-02-03T17:21:18.742Z,23.9
2023-02-03T17:26:29.518Z,22.8
2023-02-03T17:32:24.666Z,18
2023-02-03T17:38:03.024Z,11.9
2023-02-03T17:54:36.128Z,5.9
2023-02-03T18:00:21.296Z,14.4
2023-02-03T18:05:53.302Z,11.9
2023-02-03T18:11:04.742Z,9.6
2023-02-03T18:17:02.888Z,8.4
2023-02-03T18:27:54.282Z,10.7
2023-02-03T18:33:41.308Z,0
2023-02-03T18:38:59.608Z,0
2023-02-03T18:44:32.013Z,0
2023-02-03T18:50:19.150Z,0
2023-02-03T18:55:58.879Z,0
2023-02-03T19:01:24.028Z,0
2023-02-03T19:06:56.209Z,0
2023-02-03T19:12:18.546Z,0
2023-02-03T19:18:02.916Z,0
2023-02-03T19:23:30.380Z,0
2023-02-03T19:29:00.692Z,3.6
2023-02-03T19:34:47.137Z,3.6
2023-02-03T19:40:16.019Z,3.6
2023-02-03T19:45:45.254Z,3.6
2023-02-03T19:51:19.648Z,0
2023-02-03T19:56:39.628Z,0
2023-02-03T20:02:33.867Z,0
2023-02-03T20:07:58.606Z,0
2023-02-03T20:13:40.806Z,5.9
2023-02-03T20:19:10.017Z,2.4
2023-02-03T20:24:38.139Z,0
2023-02-03T20:29:58.872Z,0
2023-02-03T20:35:56.602Z,2.4
2023-02-03T20:41:20.475Z,3.6
2023-02-03T20:46:44.892Z,2.4
2023-02-03T20:52:28.248Z,0
2023-02-03T20:58:10.582Z,0
2023-02-03T21:03:25.270Z,2.4
2023-02-03T21:08:49.806Z,0
2023-02-03T21:14:50.024Z,0
2023-02-03T21:20:04.788Z,4.8
2023-02-03T21:25:46.533Z,0
2023-02-03T21:31:13.902Z,0
2023-02-03T21:37:02.762Z,0
2023-02-03T21:42:27.923Z,0
2023-02-03T21:48:01.476Z,0
2023-02-03T21:53:16.370Z,4.8
2023-02-03T21:59:07.717Z,5.9
2023-02-03T22:04:28.197Z,3.6
2023-02-03T22:10:08.893Z,0
2023-02-03T22:15:36.620Z,0
2023-02-03T22:21:20.997Z,0
2023-02-03T22:26:57.186Z,0
2023-02-03T22:32:08.398Z,0
2023-02-03T22:37:47.361Z,0
2023-02-03T22:43:42.225Z,0
2023-02-03T22:48:56.676Z,0
2023-02-03T22:54:27.558Z,0
2023-02-03T23:00:05.652Z,0
2023-02-03T23:05:52.621Z,4.8
2023-02-03T23:11:09.603Z,4.8
2023-02-03T23:16:42.744Z,0
2023-02-03T23:22:17.153Z,0
2023-02-03T23:27:53.817Z,0
2023-02-03T23:33:18.459Z,0
2023-02-03T23:38:53.999Z,0
2023-02-03T23:44:47.125Z,0
2023-02-03T23:50:06.294Z,0
2023-02-03T23:55:49.702Z,0
